Time;durP1;ratioP1;P1;durP2;ratioP2;P2;SDS_P1;SDS_P2;PMS_P1;PMS_P2;Temp;Humidity;BMP_temperature;BMP_pressure;BME280_temperature;BME280_humidity;BME280_pressure;Samples;Min_cycle;Max_cycle;Signal;HPM_P1;HPM_P2
2021/10/06 00:01:07;;;;;;;23.80;9.90;;;;;;;11.52;62.95;99209.89;113128;1194;112598;-70
2021/10/06 00:03:35;;;;;;;23.80;9.30;;;;;;;11.55;62.94;99211.85;113114;1195;97468;-71
2021/10/06 00:06:06;;;;;;;22.30;8.30;;;;;;;11.56;62.82;99212.48;113086;1195;107330;-69
2021/10/06 00:08:33;;;;;;;21.60;8.60;;;;;;;11.55;62.82;99209.88;113088;1195;98930;-70
2021/10/06 00:11:03;;;;;;;22.00;9.10;;;;;;;11.52;62.77;99208.81;113166;1195;99816;-70
2021/10/06 00:13:32;;;;;;;23.30;9.30;;;;;;;11.47;62.93;99209.05;113026;1195;112509;-70
2021/10/06 00:16:01;;;;;;;22.60;9.00;;;;;;;11.42;62.91;99212.23;113162;1195;98865;-70
2021/10/06 00:18:29;;;;;;;22.50;9.20;;;;;;;11.39;62.95;99211.41;113099;1195;105990;-70
2021/10/06 00:20:58;;;;;;;22.30;8.40;;;;;;;11.39;63.01;99209.79;113075;1195;97519;-70
2021/10/06 00:23:28;;;;;;;22.30;9.40;;;;;;;11.40;63.06;99214.19;113128;1195;99019;-70
2021/10/06 00:25:56;;;;;;;21.70;9.10;;;;;;;11.42;63.06;99217.58;113071;1195;113566;-70
2021/10/06 00:28:24;;;;;;;21.00;8.90;;;;;;;11.43;63.16;99214.97;113074;1196;98977;-70
2021/10/06 00:30:53;;;;;;;21.40;8.60;;;;;;;11.45;63.06;99214.88;113079;1195;108932;-70
2021/10/06 00:33:21;;;;;;;22.10;8.70;;;;;;;11.45;63.15;99222.30;113139;1195;98983;-70
2021/10/06 00:35:48;;;;;;;21.40;8.50;;;;;;;11.42;63.11;99223.92;113153;1195;97829;-69
2021/10/06 00:38:17;;;;;;;19.10;7.70;;;;;;;11.42;63.12;99227.16;113098;1195;112058;-69
2021/10/06 00:40:44;;;;;;;23.40;8.70;;;;;;;11.41;63.12;99225.95;113101;1195;98922;-69
2021/10/06 00:43:13;;;;;;;26.90;8.80;;;;;;;11.40;63.12;99229.95;113114;1195;108115;-69
2021/10/06 00:45:41;;;;;;;19.50;7.90;;;;;;;11.42;63.16;99226.47;113071;1195;97772;-70
2021/10/06 00:48:10;;;;;;;23.00;9.80;;;;;;;11.43;63.38;99225.48;113136;1195;99638;-70
2021/10/06 00:50:38;;;;;;;19.70;8.50;;;;;;;11.44;63.17;99222.38;113194;1196;112296;-69
2021/10/06 00:53:07;;;;;;;21.80;8.70;;;;;;;11.43;63.26;99225.45;113172;1195;98911;-70
2021/10/06 00:55:37;;;;;;;21.40;9.00;;;;;;;11.38;63.11;99231.17;112950;1196;107536;-70
2021/10/06 00:58:05;;;;;;;26.00;9.90;;;;;;;11.34;63.16;99233.63;113126;1195;99010;-69
2021/10/06 01:00:34;;;;;;;23.40;9.10;;;;;;;11.28;63.11;99237.73;113166;1195;98974;-70
2021/10/06 01:03:02;;;;;;;26.00;10.70;;;;;;;11.22;63.10;99240.15;113128;1195;112525;-70
2021/10/06 01:05:30;;;;;;;22.70;8.70;;;;;;;11.19;63.13;99243.21;113201;1195;97411;-71
2021/10/06 01:08:00;;;;;;;23.20;9.40;;;;;;;11.14;63.12;99241.04;113088;1195;107525;-71
2021/10/06 01:10:28;;;;;;;27.60;9.20;;;;;;;11.12;63.10;99243.55;113120;1195;98996;-71
2021/10/06 01:12:58;;;;;;;28.90;9.20;;;;;;;11.08;63.17;99248.02;113175;1195;97616;-70
2021/10/06 01:15:27;;;;;;;25.00;9.60;;;;;;;11.05;63.18;99249.87;113083;1195;113072;-70
2021/10/06 01:17:55;;;;;;;24.10;9.50;;;;;;;11.02;63.28;99256.82;112866;1196;98886;-71
2021/10/06 01:20:23;;;;;;;26.50;10.00;;;;;;;10.98;63.14;99263.48;113016;1195;108309;-71
2021/10/06 01:22:51;;;;;;;21.50;9.20;;;;;;;10.94;63.13;99260.64;113076;1195;97714;-70
2021/10/06 01:25:20;;;;;;;22.10;9.00;;;;;;;10.91;63.15;99261.92;112985;1196;98430;-70
2021/10/06 01:27:48;;;;;;;22.30;9.70;;;;;;;10.88;63.22;99260.88;113109;1195;113675;-71
2021/10/06 01:30:16;;;;;;;25.40;9.60;;;;;;;10.85;63.29;99266.15;113146;1195;99011;-70
2021/10/06 01:32:46;;;;;;;24.10;9.90;;;;;;;10.83;63.29;99265.46;113057;1195;108121;-70
2021/10/06 01:35:16;;;;;;;23.00;10.00;;;;;;;10.79;63.23;99269.98;113137;1195;98264;-70
2021/10/06 01:37:45;;;;;;;23.90;10.00;;;;;;;10.75;63.30;99274.34;113165;1195;97746;-70
2021/10/06 01:40:22;;;;;;;24.10;9.60;;;;;;;10.72;63.28;99277.22;113125;1195;112474;-70
2021/10/06 01:42:53;;;;;;;22.40;9.10;;;;;;;10.69;63.26;99277.43;113152;1196;99610;-69
2021/10/06 01:45:25;;;;;;;26.50;9.70;;;;;;;10.66;63.29;99289.83;113137;1195;107535;-69
2021/10/06 01:48:02;;;;;;;24.70;9.10;;;;;;;10.64;63.30;99287.49;113092;1194;99001;-69
2021/10/06 01:50:31;;;;;;;26.00;9.00;;;;;;;10.62;63.27;99291.23;113040;1195;98909;-69
2021/10/06 01:52:59;;;;;;;22.50;9.50;;;;;;;10.58;63.32;99294.81;113052;1195;113388;-71
2021/10/06 01:55:31;;;;;;;23.50;9.70;;;;;;;10.56;63.23;99295.87;113071;1195;99011;-69
2021/10/06 01:58:03;;;;;;;24.40;9.60;;;;;;;10.53;63.37;99297.66;112990;1195;108079;-69
2021/10/06 02:00:31;;;;;;;21.60;8.60;;;;;;;10.50;63.23;99290.95;113094;1195;98905;-70
2021/10/06 02:03:00;;;;;;;22.90;8.60;;;;;;;10.47;63.27;99293.48;113204;1195;99010;-70
2021/10/06 02:05:29;;;;;;;23.90;9.30;;;;;;;10.43;63.35;99294.27;113032;1195;112040;-69
2021/10/06 02:07:56;;;;;;;25.60;8.50;;;;;;;10.40;63.17;99293.05;113045;1195;98959;-69
2021/10/06 02:10:24;;;;;;;19.40;8.20;;;;;;;10.30;63.21;99291.19;113016;1195;110291;-70
2021/10/06 02:12:53;;;;;;;26.90;9.50;;;;;;;10.24;63.30;99290.20;113021;1195;98935;-70
2021/10/06 02:15:23;;;;;;;21.50;8.90;;;;;;;10.23;63.39;99290.42;113173;1195;99038;-69
2021/10/06 02:17:52;;;;;;;22.20;8.90;;;;;;;10.24;63.36;99293.59;113015;1196;112236;-70
2021/10/06 02:20:22;;;;;;;24.10;9.60;;;;;;;10.24;63.43;99294.41;113185;1195;99000;-69
2021/10/06 02:22:51;;;;;;;23.30;8.70;;;;;;;10.24;63.45;99299.94;113219;1195;107473;-70
2021/10/06 02:25:21;;;;;;;21.10;9.00;;;;;;;10.24;63.50;99302.60;113170;1195;99025;-71
2021/10/06 02:27:50;;;;;;;21.00;8.70;;;;;;;10.22;63.45;99303.94;113238;1195;98999;-71
2021/10/06 02:30:18;;;;;;;21.60;8.70;;;;;;;10.22;63.60;99310.55;113242;1195;113080;-71
2021/10/06 02:32:46;;;;;;;21.40;8.60;;;;;;;10.20;63.48;99306.76;113187;1194;98941;-70
2021/10/06 02:35:15;;;;;;;21.50;8.90;;;;;;;10.19;63.49;99307.94;113128;1195;108161;-70
2021/10/06 02:37:44;;;;;;;23.60;9.30;;;;;;;10.17;63.63;99308.75;113090;1195;99021;-69
2021/10/06 02:40:16;;;;;;;23.80;8.80;;;;;;;10.15;63.61;99306.56;113099;1195;99039;-69
2021/10/06 02:42:47;;;;;;;22.80;9.30;;;;;;;10.13;63.63;99308.83;113091;1195;112390;-68
2021/10/06 02:45:18;;;;;;;21.90;8.80;;;;;;;10.11;63.60;99308.05;113177;1195;99008;-68
2021/10/06 02:47:47;;;;;;;24.90;9.50;;;;;;;10.10;63.68;99305.86;113161;1195;105463;-69
2021/10/06 02:50:21;;;;;;;22.70;9.40;;;;;;;10.09;63.63;99309.66;113196;1194;98998;-70
2021/10/06 02:52:50;;;;;;;21.90;9.10;;;;;;;10.06;63.73;99312.10;113244;1195;96517;-70
2021/10/06 02:55:19;;;;;;;24.10;8.90;;;;;;;10.04;63.65;99315.96;113192;1195;112570;-69
2021/10/06 02:57:47;;;;;;;22.60;9.30;;;;;;;10.03;63.69;99307.21;113155;1195;96623;-69
2021/10/06 03:00:17;;;;;;;24.60;10.00;;;;;;;10.00;63.70;99310.23;113130;1195;107799;-70
2021/10/06 03:02:46;;;;;;;24.30;9.30;;;;;;;9.96;63.66;99303.59;113143;1194;99643;-69
2021/10/06 03:05:14;;;;;;;22.80;9.50;;;;;;;9.94;63.68;99306.39;113159;1195;99023;-68
2021/10/06 03:07:42;;;;;;;21.80;9.80;;;;;;;9.90;63.66;99304.36;113114;1194;112505;-71
2021/10/06 03:10:12;;;;;;;18.10;7.80;;;;;;;9.86;63.57;99303.38;113170;1195;98921;-69
2021/10/06 03:12:40;;;;;;;23.30;8.90;;;;;;;9.78;63.58;99307.04;113142;1195;107527;-69
2021/10/06 03:15:10;;;;;;;26.00;10.50;;;;;;;9.74;63.79;99305.71;113170;1195;99014;-69
2021/10/06 03:17:39;;;;;;;20.80;9.70;;;;;;;9.74;63.84;99308.73;113190;1195;98999;-70
2021/10/06 03:20:10;;;;;;;24.40;8.80;;;;;;;9.75;63.91;99306.23;113150;1195;112149;-69
2021/10/06 03:22:39;;;;;;;25.40;9.40;;;;;;;9.74;63.92;99308.70;113122;1195;98948;-69
2021/10/06 03:25:07;;;;;;;22.00;9.10;;;;;;;9.75;63.89;99313.66;113155;1195;107583;-68
2021/10/06 03:27:36;;;;;;;25.50;10.40;;;;;;;9.73;63.79;99312.88;113181;1195;96404;-70
2021/10/06 03:30:09;;;;;;;24.20;9.60;;;;;;;9.70;63.97;99311.45;112791;1195;96595;-69
2021/10/06 03:32:38;;;;;;;22.60;10.20;;;;;;;9.68;63.95;99313.02;113097;1194;112535;-69
2021/10/06 03:35:07;;;;;;;22.50;9.10;;;;;;;9.66;63.97;99309.91;113215;1195;98917;-67
2021/10/06 03:37:36;;;;;;;20.10;8.80;;;;;;;9.66;63.84;99306.23;113173;1195;107331;-69
2021/10/06 03:40:08;;;;;;;23.40;9.00;;;;;;;9.65;64.05;99308.63;113128;1195;98978;-69
2021/10/06 03:42:36;;;;;;;22.60;9.60;;;;;;;9.63;64.02;99308.38;113120;1195;98889;-70
2021/10/06 03:45:08;;;;;;;20.40;9.10;;;;;;;9.62;64.05;99307.73;113108;1194;112838;-69
2021/10/06 03:47:37;;;;;;;21.20;9.00;;;;;;;9.60;64.03;99303.60;113229;1195;98893;-68
2021/10/06 03:50:07;;;;;;;21.40;9.50;;;;;;;9.59;64.04;99307.42;113186;1194;108145;-69
2021/10/06 03:52:35;;;;;;;23.80;10.10;;;;;;;9.58;64.08;99308.90;113199;1195;99013;-69
2021/10/06 03:55:07;;;;;;;23.00;8.80;;;;;;;9.57;64.10;99309.98;113188;1195;99016;-69
2021/10/06 03:57:35;;;;;;;22.10;8.90;;;;;;;9.56;64.17;99307.23;113168;1195;112512;-68
2021/10/06 04:00:07;;;;;;;21.20;9.90;;;;;;;9.57;64.16;99308.98;113244;1195;98937;-69
2021/10/06 04:02:34;;;;;;;21.60;9.80;;;;;;;9.56;64.18;99306.39;113220;1195;107343;-69
2021/10/06 04:05:05;;;;;;;22.40;8.40;;;;;;;9.54;64.23;99302.02;113203;1195;99058;-68
2021/10/06 04:07:33;;;;;;;21.30;9.30;;;;;;;9.53;64.21;99303.52;113143;1195;98717;-69
2021/10/06 04:10:03;;;;;;;25.30;10.00;;;;;;;9.52;64.26;99298.08;113202;1194;112950;-67
2021/10/06 04:12:32;;;;;;;20.30;8.80;;;;;;;9.52;64.34;99299.66;113209;1195;96519;-69
2021/10/06 04:15:01;;;;;;;23.00;8.60;;;;;;;9.51;64.18;99297.63;113130;1195;108263;-69
2021/10/06 04:17:28;;;;;;;25.70;9.30;;;;;;;9.50;64.29;99300.00;113084;1194;99033;-68
2021/10/06 04:19:58;;;;;;;23.40;9.50;;;;;;;9.48;64.23;99305.44;113197;1195;98994;-68
2021/10/06 04:22:26;;;;;;;23.80;9.30;;;;;;;9.47;64.34;99307.24;113186;1195;112542;-70
2021/10/06 04:24:54;;;;;;;24.10;9.10;;;;;;;9.46;64.28;99307.30;113108;1195;97740;-69
2021/10/06 04:27:22;;;;;;;22.70;9.20;;;;;;;9.45;64.32;99310.41;113120;1195;107993;-68
2021/10/06 04:29:49;;;;;;;22.80;8.60;;;;;;;9.44;64.38;99308.02;113152;1195;99012;-68
2021/10/06 04:32:18;;;;;;;26.80;10.80;;;;;;;9.43;64.34;99310.38;113175;1195;99001;-69
2021/10/06 04:34:46;;;;;;;22.70;9.90;;;;;;;9.41;64.34;99314.37;113181;1195;112346;-67
2021/10/06 04:37:15;;;;;;;28.50;9.70;;;;;;;9.41;64.45;99310.11;113156;1194;98983;-70
2021/10/06 04:39:43;;;;;;;23.10;9.60;;;;;;;9.40;64.48;99308.58;113216;1195;107502;-69
2021/10/06 04:42:11;;;;;;;26.10;10.00;;;;;;;9.39;64.49;99314.83;113181;1195;98905;-70
2021/10/06 04:44:39;;;;;;;21.60;9.60;;;;;;;9.38;64.43;99322.17;113238;1195;98916;-70
2021/10/06 04:47:06;;;;;;;26.00;9.70;;;;;;;9.37;64.52;99327.22;113149;1195;113040;-70
2021/10/06 04:49:34;;;;;;;25.70;9.90;;;;;;;9.35;64.52;99326.05;113152;1195;97107;-70
2021/10/06 04:52:04;;;;;;;20.80;9.90;;;;;;;9.35;64.55;99324.84;113095;1194;107533;-69
2021/10/06 04:54:32;;;;;;;26.90;9.70;;;;;;;9.35;64.56;99327.84;113056;1195;99002;-69
2021/10/06 04:56:59;;;;;;;25.70;10.10;;;;;;;9.35;64.61;99328.73;113027;1195;98973;-69
2021/10/06 04:59:27;;;;;;;23.80;10.60;;;;;;;9.36;64.60;99328.84;113194;1195;113165;-70
2021/10/06 05:01:56;;;;;;;26.00;10.50;;;;;;;9.37;64.62;99332.89;113217;1195;96329;-68
2021/10/06 05:04:28;;;;;;;27.80;12.20;;;;;;;9.37;64.66;99330.88;113141;1195;107545;-71
2021/10/06 05:06:58;;;;;;;24.90;10.00;;;;;;;9.39;64.59;99331.29;113204;1195;98908;-69
2021/10/06 05:09:25;;;;;;;24.60;10.00;;;;;;;9.38;64.51;99330.83;113207;1194;96429;-69
2021/10/06 05:11:53;;;;;;;22.40;9.30;;;;;;;9.35;64.54;99334.38;113142;1195;113267;-69
2021/10/06 05:14:23;;;;;;;22.80;9.60;;;;;;;9.30;64.60;99332.05;113166;1195;97413;-69
2021/10/06 05:16:53;;;;;;;22.20;9.70;;;;;;;9.29;64.76;99331.06;113037;1195;108113;-68
2021/10/06 05:19:22;;;;;;;23.60;9.40;;;;;;;9.33;64.85;99332.77;113125;1196;99010;-69
2021/10/06 05:21:52;;;;;;;21.40;9.60;;;;;;;9.37;64.88;99335.70;113204;1195;98931;-67
2021/10/06 05:24:20;;;;;;;23.20;10.30;;;;;;;9.42;64.97;99337.89;112932;1195;113102;-69
2021/10/06 05:26:48;;;;;;;29.50;10.80;;;;;;;9.48;65.00;99336.80;112910;1195;98912;-69
2021/10/06 05:29:16;;;;;;;25.50;10.50;;;;;;;9.55;65.04;99336.36;112918;1195;107975;-69
2021/10/06 05:31:44;;;;;;;24.80;10.00;;;;;;;9.60;65.00;99335.65;112950;1195;99611;-68
2021/10/06 05:34:11;;;;;;;24.50;10.40;;;;;;;9.66;65.05;99333.88;112993;1195;98967;-68
2021/10/06 05:36:39;;;;;;;21.00;9.80;;;;;;;9.72;65.16;99340.94;112960;1195;113081;-68
2021/10/06 05:39:07;;;;;;;23.80;10.20;;;;;;;9.78;65.20;99342.78;112942;1195;99013;-68
2021/10/06 05:41:35;;;;;;;26.50;10.10;;;;;;;9.87;65.21;99348.66;112967;1195;108089;-68
2021/10/06 05:44:03;;;;;;;24.20;9.70;;;;;;;9.94;65.15;99347.84;112933;1195;98995;-69
2021/10/06 05:46:31;;;;;;;24.90;9.70;;;;;;;10.01;65.23;99351.62;112979;1195;98972;-70
2021/10/06 05:48:59;;;;;;;27.90;9.90;;;;;;;10.07;65.17;99352.63;113100;1195;112608;-71
2021/10/06 05:51:31;;;;;;;20.50;9.30;;;;;;;10.14;65.25;99349.48;113110;1195;98994;-70
2021/10/06 05:53:59;;;;;;;22.80;9.50;;;;;;;10.20;65.13;99349.27;112802;1195;107360;-71
2021/10/06 05:56:28;;;;;;;24.50;9.00;;;;;;;10.25;65.18;99343.65;113061;1197;98974;-71
2021/10/06 05:58:55;;;;;;;21.50;9.70;;;;;;;10.31;65.20;99345.73;113071;1195;99025;-70
2021/10/06 06:01:26;;;;;;;22.30;9.50;;;;;;;10.37;65.39;99350.29;113034;1197;113128;-70
2021/10/06 06:03:55;;;;;;;20.60;8.50;;;;;;;10.41;65.54;99349.86;113273;1195;98858;-69
2021/10/06 06:06:23;;;;;;;21.90;9.60;;;;;;;10.47;65.44;99348.77;113082;1197;108111;-69
2021/10/06 06:08:51;;;;;;;25.30;9.60;;;;;;;10.54;65.45;99350.05;113027;1195;98968;-70
2021/10/06 06:11:22;;;;;;;32.30;15.00;;;;;;;10.63;65.53;99353.04;113129;1196;99022;-68
2021/10/06 06:13:50;;;;;;;28.40;11.30;;;;;;;10.72;65.62;99351.84;113088;1195;112503;-69
2021/10/06 06:16:18;;;;;;;19.70;9.40;;;;;;;10.82;65.53;99351.00;113313;1195;99024;-68
2021/10/06 06:18:46;;;;;;;28.80;10.40;;;;;;;10.93;65.58;99349.73;113057;1200;109629;-70
2021/10/06 06:21:14;;;;;;;25.50;10.00;;;;;;;11.03;65.51;99349.73;113248;1195;99028;-70
2021/10/06 06:23:42;;;;;;;27.70;11.10;;;;;;;11.13;65.56;99349.23;113243;1195;96542;-69
2021/10/06 06:26:10;;;;;;;24.20;9.10;;;;;;;11.22;65.56;99344.12;113125;1195;112499;-70
2021/10/06 06:28:39;;;;;;;23.20;10.50;;;;;;;11.30;65.57;99350.31;113171;1194;98985;-69
2021/10/06 06:31:08;;;;;;;24.20;9.90;;;;;;;11.37;65.65;99351.26;112960;1198;108877;-70
2021/10/06 06:33:37;;;;;;;24.10;10.20;;;;;;;11.41;65.67;99349.35;113149;1195;98964;-69
2021/10/06 06:36:06;;;;;;;21.40;8.70;;;;;;;11.47;65.70;99351.27;113358;1195;99021;-69
2021/10/06 06:38:33;;;;;;;21.20;8.40;;;;;;;11.54;65.68;99352.02;113152;1195;115283;-71
2021/10/06 06:41:02;;;;;;;20.00;8.50;;;;;;;11.60;65.98;99355.46;113318;1195;98903;-71
2021/10/06 06:43:30;;;;;;;21.20;8.70;;;;;;;11.63;65.83;99362.37;112941;1196;108577;-70
2021/10/06 06:45:58;;;;;;;20.90;7.80;;;;;;;11.66;65.80;99365.92;113307;1200;98900;-70
2021/10/06 06:48:26;;;;;;;17.90;7.60;;;;;;;11.70;65.91;99366.64;113276;1194;96403;-69
2021/10/06 06:50:54;;;;;;;20.90;8.10;;;;;;;11.72;65.70;99368.12;113116;1195;111911;-70
2021/10/06 06:53:27;;;;;;;21.90;8.10;;;;;;;11.75;65.75;99367.70;113059;1195;98908;-70
2021/10/06 06:55:58;;;;;;;19.30;8.60;;;;;;;11.81;65.78;99368.42;112791;1196;105902;-70
2021/10/06 06:58:27;;;;;;;25.80;9.10;;;;;;;11.87;65.75;99368.06;113153;1195;98990;-70
2021/10/06 07:00:55;;;;;;;24.90;10.30;;;;;;;11.96;65.75;99374.08;113213;1195;98950;-69
2021/10/06 07:03:23;;;;;;;25.20;10.50;;;;;;;12.03;65.74;99372.51;113133;1195;113601;-69
2021/10/06 07:05:52;;;;;;;30.80;11.70;;;;;;;12.09;65.69;99377.56;113069;1195;99006;-70
2021/10/06 07:08:19;;;;;;;22.00;10.20;;;;;;;12.14;65.72;99376.81;113043;1195;107539;-69
2021/10/06 07:10:49;;;;;;;24.00;9.50;;;;;;;12.19;65.59;99381.59;113021;1196;98980;-68
2021/10/06 07:13:32;;;;;;;22.80;10.20;;;;;;;12.25;65.72;99381.39;113179;1194;97454;-68
2021/10/06 07:16:00;;;;;;;23.80;10.80;;;;;;;12.29;65.70;99386.60;113078;1194;113038;-69
2021/10/06 07:18:29;;;;;;;27.10;10.70;;;;;;;12.32;65.68;99386.31;113128;1195;98893;-67
2021/10/06 07:21:02;;;;;;;30.20;10.80;;;;;;;12.34;65.60;99380.98;113125;1194;108378;-72
2021/10/06 07:23:30;;;;;;;27.70;11.20;;;;;;;12.40;65.65;99385.80;113173;1195;99639;-69
2021/10/06 07:25:58;;;;;;;26.50;10.60;;;;;;;12.44;65.59;99389.02;113110;1195;98906;-71
2021/10/06 07:28:26;;;;;;;30.50;11.40;;;;;;;12.47;65.60;99387.14;113111;1195;112768;-73
2021/10/06 07:30:54;;;;;;;25.10;10.10;;;;;;;12.52;65.68;99388.41;113156;1195;98899;-70
2021/10/06 07:33:22;;;;;;;27.60;9.40;;;;;;;12.57;65.69;99385.54;113047;1196;107541;-71
2021/10/06 07:35:52;;;;;;;24.70;11.20;;;;;;;12.62;65.58;99390.89;113057;1195;98914;-72
2021/10/06 07:38:20;;;;;;;25.00;11.20;;;;;;;12.66;65.70;99391.42;113124;1195;97435;-72
2021/10/06 07:40:48;;;;;;;33.40;13.70;;;;;;;12.70;65.62;99393.09;113106;1195;112558;-69
2021/10/06 07:43:16;;;;;;;30.80;13.90;;;;;;;12.74;65.57;99393.92;113269;1195;98911;-69
2021/10/06 07:45:46;;;;;;;32.80;11.80;;;;;;;12.76;65.60;99394.29;113105;1195;107523;-69
2021/10/06 07:48:17;;;;;;;28.90;12.50;;;;;;;12.78;65.54;99396.96;113091;1195;98951;-70
2021/10/06 07:50:45;;;;;;;26.90;12.50;;;;;;;12.81;65.61;99399.05;113082;1196;99025;-70
2021/10/06 07:53:12;;;;;;;31.10;12.20;;;;;;;12.85;65.50;99399.27;113122;1196;113630;-71
2021/10/06 07:55:42;;;;;;;24.00;10.70;;;;;;;12.88;65.48;99396.91;113145;1195;98905;-69
2021/10/06 07:58:10;;;;;;;28.00;10.40;;;;;;;12.91;65.49;99400.39;113122;1195;109645;-71
2021/10/06 08:00:37;;;;;;;24.50;9.00;;;;;;;12.96;65.51;99401.47;113037;1196;99013;-68
2021/10/06 08:03:05;;;;;;;24.00;10.40;;;;;;;13.02;65.56;99399.02;113077;1196;100200;-68
2021/10/06 08:05:33;;;;;;;28.60;9.90;;;;;;;13.10;65.58;99401.79;112963;1197;113324;-68
2021/10/06 08:08:02;;;;;;;22.70;10.10;;;;;;;13.19;65.61;99403.23;113125;1194;99037;-70
2021/10/06 08:10:30;;;;;;;27.30;11.30;;;;;;;13.28;65.54;99403.75;113278;1195;107530;-70
2021/10/06 08:12:59;;;;;;;27.70;10.30;;;;;;;13.38;65.61;99403.33;113118;1196;96491;-70
2021/10/06 08:15:28;;;;;;;24.30;10.30;;;;;;;13.49;65.59;99405.54;113184;1196;98901;-70
2021/10/06 08:17:56;;;;;;;24.40;8.90;;;;;;;13.63;65.60;99405.52;113095;1195;113087;-70
2021/10/06 08:20:24;;;;;;;22.40;9.70;;;;;;;13.79;65.56;99403.37;113143;1195;97491;-69
2021/10/06 08:22:53;;;;;;;23.90;9.60;;;;;;;13.95;65.55;99403.16;113839;1195;108189;-71
2021/10/06 08:25:21;;;;;;;21.70;10.10;;;;;;;14.09;65.53;99402.71;113113;1197;98984;-69
2021/10/06 08:27:49;;;;;;;28.00;10.60;;;;;;;14.23;65.49;99403.55;113141;1195;96509;-69
2021/10/06 08:30:17;;;;;;;23.50;10.00;;;;;;;14.33;65.50;99398.06;112949;1194;113445;-67
2021/10/06 08:32:45;;;;;;;24.10;10.50;;;;;;;14.45;65.45;99395.34;112824;1195;96306;-69
2021/10/06 08:35:13;;;;;;;22.80;9.90;;;;;;;14.68;65.47;99390.59;113792;1194;108071;-70
2021/10/06 08:37:42;;;;;;;24.10;10.10;;;;;;;14.88;65.37;99390.19;113039;1196;98990;-69
2021/10/06 08:40:13;;;;;;;21.80;9.40;;;;;;;15.07;65.42;99388.70;113153;1195;99016;-70
2021/10/06 08:42:44;;;;;;;23.50;9.50;;;;;;;15.23;65.32;99387.53;113255;1195;112670;-69
2021/10/06 08:45:12;;;;;;;21.40;9.30;;;;;;;15.34;65.30;99394.07;113331;1196;99609;-69
2021/10/06 08:47:42;;;;;;;19.10;9.10;;;;;;;15.36;64.93;99397.52;113053;1195;107157;-70
2021/10/06 08:50:19;;;;;;;23.80;10.20;;;;;;;15.39;65.04;99394.33;113083;1196;98927;-69
2021/10/06 08:52:48;;;;;;;20.60;9.30;;;;;;;15.49;65.24;99403.00;113144;1196;98937;-70
2021/10/06 08:55:28;;;;;;;23.40;10.30;;;;;;;15.54;64.91;99399.52;113064;1196;113076;-71
2021/10/06 08:58:02;;;;;;;26.90;10.20;;;;;;;15.67;65.05;99397.27;113122;1196;98863;-69
2021/10/06 09:00:32;;;;;;;23.80;10.10;;;;;;;15.80;64.93;99404.17;113062;1195;107445;-71
2021/10/06 09:03:09;;;;;;;25.50;9.30;;;;;;;15.93;64.92;99402.00;113131;1195;99086;-69
2021/10/06 09:05:37;;;;;;;24.10;9.40;;;;;;;16.08;64.92;99399.01;112859;1196;99126;-69
2021/10/06 09:08:08;;;;;;;25.10;9.70;;;;;;;16.27;64.97;99397.70;113139;1195;113964;-68
2021/10/06 09:10:36;;;;;;;24.10;9.90;;;;;;;16.46;65.02;99400.23;113042;1195;98836;-70
2021/10/06 09:13:09;;;;;;;22.60;9.30;;;;;;;16.59;64.95;99402.11;113078;1196;107508;-70
2021/10/06 09:15:50;;;;;;;23.90;9.60;;;;;;;16.69;64.74;99401.90;113114;1196;98936;-69
2021/10/06 09:18:24;;;;;;;24.50;10.00;;;;;;;16.81;64.78;99400.55;113072;1194;98986;-68
2021/10/06 09:20:58;;;;;;;27.60;10.00;;;;;;;16.92;64.69;99399.42;113108;1195;113034;-71
2021/10/06 09:23:29;;;;;;;26.30;10.10;;;;;;;17.08;64.78;99400.64;113377;1196;99012;-70
2021/10/06 09:26:07;;;;;;;31.90;11.00;;;;;;;17.29;64.66;99401.82;113129;1195;108266;-69
2021/10/06 09:28:51;;;;;;;22.90;10.50;;;;;;;17.48;64.63;99398.81;113188;1195;96503;-69
2021/10/06 09:31:29;;;;;;;26.90;10.00;;;;;;;17.59;64.36;99402.26;113367;1195;99014;-69
2021/10/06 09:33:59;;;;;;;35.00;14.40;;;;;;;17.67;64.32;99400.52;112901;1196;113067;-70
2021/10/06 09:36:35;;;;;;;31.50;14.50;;;;;;;17.84;64.24;99397.10;113165;1195;99632;-71
2021/10/06 09:39:10;;;;;;;31.10;13.40;;;;;;;18.11;64.17;99401.58;113120;1196;107632;-71
2021/10/06 09:41:45;;;;;;;30.10;13.20;;;;;;;18.42;64.11;99396.15;113096;1196;98930;-67
2021/10/06 09:44:24;;;;;;;21.90;6.20;;;;;;;18.74;63.50;99398.44;113402;1195;99643;-70
2021/10/06 09:47:00;;;;;;;18.10;6.50;;;;;;;18.81;60.29;99398.87;113185;1195;112554;-69
2021/10/06 09:49:38;;;;;;;19.00;6.20;;;;;;;18.87;60.13;99398.60;113153;1196;99012;-71
2021/10/06 09:52:15;;;;;;;17.70;6.70;;;;;;;19.14;61.16;99394.81;113095;1196;107501;-70
2021/10/06 09:54:56;;;;;;;21.20;7.30;;;;;;;19.39;58.36;99393.63;113198;1194;98939;-70
2021/10/06 09:57:30;;;;;;;19.00;7.00;;;;;;;19.41;54.99;99396.92;113247;1195;98930;-69
2021/10/06 10:00:17;;;;;;;20.20;6.30;;;;;;;19.27;52.58;99399.94;112996;1196;112502;-70
2021/10/06 10:02:49;;;;;;;17.60;6.40;;;;;;;19.13;52.43;99399.61;113153;1196;99009;-71
2021/10/06 10:05:19;;;;;;;16.50;6.70;;;;;;;19.20;52.98;99399.25;113022;1196;107503;-70
2021/10/06 10:07:49;;;;;;;14.50;5.50;;;;;;;19.29;52.22;99395.23;113161;1195;98991;-69
2021/10/06 10:10:17;;;;;;;15.10;5.40;;;;;;;19.37;52.82;99394.77;113239;1195;99020;-69
2021/10/06 10:12:45;;;;;;;16.70;5.70;;;;;;;19.48;53.02;99392.70;113082;1196;112453;-69
2021/10/06 10:15:19;;;;;;;14.60;6.10;;;;;;;19.61;53.75;99394.95;114041;1195;98891;-70
2021/10/06 10:17:55;;;;;;;17.50;6.60;;;;;;;19.76;52.32;99392.90;113703;1195;107498;-72
2021/10/06 10:20:25;;;;;;;18.40;7.00;;;;;;;19.85;52.02;99395.16;113163;1196;98980;-71
2021/10/06 10:23:00;;;;;;;16.20;6.40;;;;;;;19.88;51.29;99394.72;113148;1179;97677;-70
2021/10/06 10:25:38;;;;;;;16.20;6.30;;;;;;;19.87;50.75;99394.77;113110;1195;113204;-70
2021/10/06 10:28:06;;;;;;;16.90;6.20;;;;;;;19.90;51.40;99394.88;113179;1196;98884;-72
2021/10/06 10:30:38;;;;;;;14.10;5.60;;;;;;;19.97;51.96;99390.10;113154;1195;107502;-69
2021/10/06 10:33:53;;;;;;;15.90;6.00;;;;;;;20.08;51.84;99389.83;113190;1195;99054;-70
2021/10/06 10:36:39;;;;;;;19.60;6.30;;;;;;;20.22;52.15;99389.11;113211;1195;98946;-72
2021/10/06 10:39:36;;;;;;;15.90;6.30;;;;;;;20.23;52.19;99384.08;113108;1196;112541;-69
2021/10/06 10:42:04;;;;;;;15.40;6.60;;;;;;;20.13;51.41;99385.17;113092;1195;98967;-70
2021/10/06 10:44:40;;;;;;;19.20;6.70;;;;;;;19.89;50.21;99386.86;113027;1195;107473;-69
2021/10/06 10:47:14;;;;;;;14.60;6.30;;;;;;;19.61;50.21;99390.30;113093;1194;98977;-69
2021/10/06 10:49:49;;;;;;;18.30;6.10;;;;;;;19.43;50.51;99391.69;113227;1196;98985;-69
2021/10/06 10:52:16;;;;;;;15.50;6.50;;;;;;;19.27;49.60;99391.38;113284;1196;112282;-68
2021/10/06 10:54:47;;;;;;;15.50;6.80;;;;;;;19.09;49.47;99391.58;113133;1195;98902;-69
2021/10/06 10:57:32;;;;;;;19.50;6.30;;;;;;;18.91;49.38;99391.73;113223;1194;107090;-68
2021/10/06 11:00:00;;;;;;;20.80;7.30;;;;;;;18.80;49.78;99393.80;113257;1196;98991;-69
2021/10/06 11:02:34;;;;;;;17.00;7.10;;;;;;;18.82;50.31;99394.23;112930;1195;98913;-70
2021/10/06 11:05:06;;;;;;;18.20;7.30;;;;;;;18.92;50.43;99393.42;113202;1195;111094;-70
2021/10/06 11:07:50;;;;;;;20.40;8.30;;;;;;;19.00;50.54;99394.15;113111;1195;96368;-71
2021/10/06 11:10:26;;;;;;;24.10;9.70;;;;;;;19.03;50.59;99395.08;113022;1196;107628;-70
2021/10/06 11:13:06;;;;;;;23.70;9.40;;;;;;;18.99;50.60;99394.02;113079;1196;98983;-71
2021/10/06 11:15:37;;;;;;;24.60;11.20;;;;;;;18.92;50.48;99398.45;112989;1196;99048;-71
2021/10/06 16:03:11;;;;;;;22.10;9.00;;;;;;;15.30;50.66;99490.69;113295;1174;98916;-72
2021/10/06 16:05:39;;;;;;;22.20;9.10;;;;;;;15.32;50.76;99492.10;113316;1193;112543;-71
2021/10/06 16:08:08;;;;;;;24.80;9.40;;;;;;;15.31;50.61;99494.50;113272;1193;97581;-74
2021/10/06 16:10:36;;;;;;;27.50;10.20;;;;;;;15.32;50.86;99490.90;113111;1195;107507;-72
2021/10/06 16:13:04;;;;;;;23.30;9.60;;;;;;;15.34;50.88;99494.09;113122;1195;99374;-71